createdAt,value
2018-09-12T00:02:25.237Z,1024.2
2018-09-12T00:07:24.995Z,1024.3
2018-09-12T00:12:25.027Z,1024.4
2018-09-12T00:17:25.050Z,1024.4
2018-09-12T00:22:25.001Z,1024.5
2018-09-12T00:27:25.040Z,1024.5
2018-09-12T00:32:27.044Z,1024.4
2018-09-12T00:37:26.901Z,1024.5
2018-09-12T00:42:39.365Z,1024.5
2018-09-12T00:47:39.269Z,1024.4
2018-09-12T00:52:39.326Z,1024.4
2018-09-12T00:57:39.050Z,1024.3
2018-09-12T01:02:39.039Z,1024.3
2018-09-12T01:07:39.616Z,1024.4
2018-09-12T01:12:39.627Z,1024.4
2018-09-12T01:17:41.627Z,1024.4
2018-09-12T01:22:41.538Z,1024.4
2018-09-12T01:27:53.617Z,1024.4
2018-09-12T01:32:53.489Z,1024.3
2018-09-12T01:37:53.446Z,1024.2
2018-09-12T01:42:54.490Z,1024.2
2018-09-12T01:47:53.324Z,1024.2
2018-09-12T01:52:53.351Z,1024.3
2018-09-12T01:57:53.359Z,1024.2
2018-09-12T02:02:58.725Z,1024.3
2018-09-12T02:07:58.641Z,1024.2
2018-09-12T02:13:11.113Z,1024.2
2018-09-12T02:18:11.000Z,1024.3
2018-09-12T02:23:10.849Z,1024.4
2018-09-12T02:28:10.786Z,1024.4
2018-09-12T02:33:11.008Z,1024.5
2018-09-12T02:38:10.970Z,1024.5
2018-09-12T02:43:11.199Z,1024.4
2018-09-12T02:48:12.233Z,1024.4
2018-09-12T02:53:12.067Z,1024.3
2018-09-12T02:58:24.584Z,1024.4
2018-09-12T03:03:24.311Z,1024.3
2018-09-12T03:08:24.556Z,1024.2
2018-09-12T03:13:24.582Z,1024.2
2018-09-12T03:18:24.439Z,1024.1
2018-09-12T03:23:24.458Z,1024.1
2018-09-12T03:28:24.314Z,1024.2
2018-09-12T03:33:24.723Z,1024.2
2018-09-12T03:38:24.681Z,1024.1
2018-09-12T03:43:36.580Z,1024.1
2018-09-12T03:48:36.258Z,1024.1
2018-09-12T03:53:36.360Z,1024
2018-09-12T03:58:36.304Z,1024
2018-09-12T04:03:36.500Z,1023.9
2018-09-12T04:08:36.328Z,1024
2018-09-12T04:13:36.296Z,1023.9
2018-09-12T04:18:41.280Z,1023.9
2018-09-12T04:23:41.035Z,1024
2018-09-12T04:28:48.264Z,1024
2018-09-12T04:33:47.977Z,1024
2018-09-12T04:38:47.990Z,1024.1
2018-09-12T04:43:48.028Z,1024
2018-09-12T04:48:48.014Z,1024
2018-09-12T04:53:47.995Z,1023.9
2018-09-12T04:58:48.391Z,1024
2018-09-12T05:03:48.183Z,1023.8
2018-09-12T05:08:48.232Z,1023.8
2018-09-12T05:13:47.986Z,1023.8
2018-09-12T05:18:48.167Z,1023.7
2018-09-12T05:23:48.030Z,1023.7
2018-09-12T05:28:48.588Z,1023.8
2018-09-12T05:33:48.506Z,1023.7
2018-09-12T05:39:00.963Z,1023.7
2018-09-12T05:44:00.621Z,1023.7
2018-09-12T05:49:00.620Z,1023.6
2018-09-12T05:54:00.633Z,1023.7
2018-09-12T05:59:00.978Z,1023.5
2018-09-12T06:04:00.660Z,1023.4
2018-09-12T06:09:00.663Z,1023.4
2018-09-12T06:14:02.682Z,1023.3
2018-09-12T06:19:02.020Z,1023.3
2018-09-12T06:24:16.119Z,1023.3
2018-09-12T06:29:19.046Z,1023.2
2018-09-12T06:34:15.801Z,1023.1
2018-09-12T06:39:16.025Z,1023
2018-09-12T06:44:16.002Z,1023
2018-09-12T06:49:16.926Z,1022.9
2018-09-12T06:54:17.070Z,1022.9
2018-09-12T06:59:17.255Z,1022.8
2018-09-12T07:04:16.989Z,1022.7
2018-09-12T07:09:29.638Z,1022.6
2018-09-12T07:14:29.340Z,1022.5
2018-09-12T07:19:29.372Z,1022.4
2018-09-12T07:24:29.977Z,1022.4
2018-09-12T07:29:29.353Z,1022.4
2018-09-12T07:34:29.302Z,1022.2
2018-09-12T07:39:29.574Z,1022.3
2018-09-12T07:44:30.430Z,1022.1
2018-09-12T07:49:30.278Z,1022.1
2018-09-12T07:54:47.976Z,1022
2018-09-12T07:59:47.718Z,1022.1
2018-09-12T08:04:52.541Z,1022.1
2018-09-12T08:09:52.433Z,1022
2018-09-12T08:15:03.180Z,1022.1
2018-09-12T08:20:02.729Z,1022.1
2018-09-12T08:25:02.729Z,1021.9
2018-09-12T08:30:02.908Z,1021.9
2018-09-12T08:35:02.754Z,1021.7
2018-09-12T08:40:02.906Z,1021.8
2018-09-12T08:45:02.907Z,1021.6
2018-09-12T08:50:03.411Z,1021.5
2018-09-12T08:55:03.104Z,1021.5
2018-09-12T09:00:15.985Z,1021.5
2018-09-12T09:05:15.544Z,1021.3
2018-09-12T09:10:15.591Z,1021.4
2018-09-12T09:15:15.616Z,1021.3
2018-09-12T09:20:15.524Z,1021.4
2018-09-12T09:25:15.705Z,1021.4
2018-09-12T09:30:15.368Z,1021.2
2018-09-12T09:35:16.526Z,1021.2
2018-09-12T09:40:15.813Z,1021.3
2018-09-12T09:45:29.084Z,1021.3
2018-09-12T09:50:28.444Z,1021.1
2018-09-12T09:55:28.684Z,1021.1
2018-09-12T10:00:29.140Z,1021
2018-09-12T10:05:28.458Z,1021
2018-09-12T10:10:30.272Z,1020.8
2018-09-12T10:15:30.284Z,1020.9
2018-09-12T10:20:30.306Z,1020.8
2018-09-12T10:25:30.301Z,1020.7
2018-09-12T10:30:42.939Z,1020.5
2018-09-12T10:35:42.889Z,1020.5
2018-09-12T10:40:42.660Z,1020.5
2018-09-12T10:45:42.893Z,1020.5
2018-09-12T10:50:42.920Z,1020.4
2018-09-12T10:55:42.936Z,1020.4
2018-09-12T11:00:43.156Z,1020.3
2018-09-12T11:05:42.994Z,1020.2
2018-09-12T11:10:42.960Z,1020.2
2018-09-12T11:15:42.950Z,1020
2018-09-12T11:20:43.081Z,1019.9
2018-09-12T11:25:42.973Z,1020
2018-09-12T11:30:46.384Z,1020
2018-09-12T11:35:46.045Z,1020
2018-09-12T11:40:59.264Z,1019.9
2018-09-12T11:45:59.116Z,1020
2018-09-12T11:50:58.957Z,1019.9
2018-09-12T11:55:59.005Z,1019.7
2018-09-12T12:00:59.235Z,1019.6
2018-09-12T12:05:59.363Z,1019.6
2018-09-12T12:10:59.190Z,1019.6
2018-09-12T12:15:59.228Z,1019.4
2018-09-12T12:20:59.148Z,1019.4
2018-09-12T12:25:59.218Z,1019.4
2018-09-12T12:30:59.052Z,1019.3
2018-09-12T12:35:59.122Z,1019.3
2018-09-12T12:40:59.404Z,1019.3
2018-09-12T12:45:59.106Z,1019.1
2018-09-12T12:51:11.766Z,1019
2018-09-12T12:56:11.575Z,1018.9
2018-09-12T13:01:11.665Z,1018.7
2018-09-12T13:06:11.543Z,1018.6
2018-09-12T13:11:11.574Z,1018.6
2018-09-12T13:16:11.376Z,1018.5
2018-09-12T13:21:11.836Z,1018.5
2018-09-12T13:26:13.215Z,1018.5
2018-09-12T13:31:12.920Z,1018.4
2018-09-12T13:36:25.210Z,1018.3
2018-09-12T13:41:25.120Z,1018.2
2018-09-12T13:46:24.911Z,1018.1
2018-09-12T13:51:25.060Z,1018.1
2018-09-12T13:56:25.249Z,1018.1
2018-09-12T14:01:25.592Z,1018.2
2018-09-12T14:06:25.219Z,1018
2018-09-12T14:11:25.269Z,1018.1
2018-09-12T14:16:25.462Z,1017.9
2018-09-12T14:21:25.908Z,1017.9
2018-09-12T14:26:25.270Z,1017.8
2018-09-12T14:31:25.257Z,1017.8
2018-09-12T14:36:25.649Z,1017.8
2018-09-12T14:41:25.551Z,1017.6
2018-09-12T14:46:38.833Z,1017.6
2018-09-12T14:51:38.492Z,1017.5
2018-09-12T14:56:38.328Z,1017.5
2018-09-12T15:01:38.432Z,1017.5
2018-09-12T15:06:38.329Z,1017.4
2018-09-12T15:11:38.315Z,1017.5
2018-09-12T15:16:38.316Z,1017.4
2018-09-12T15:21:38.493Z,1017.3
2018-09-12T15:26:38.483Z,1017.3
2018-09-12T15:31:52.156Z,1017.2
2018-09-12T15:36:51.901Z,1017.2
2018-09-12T15:41:52.224Z,1017.2
2018-09-12T15:46:52.055Z,1017.2
2018-09-12T15:51:52.157Z,1017.3
2018-09-12T15:56:54.193Z,1017.3
2018-09-12T16:01:53.867Z,1017.3
2018-09-12T16:06:54.053Z,1017.2
2018-09-12T16:11:53.936Z,1017.1
2018-09-12T16:16:54.185Z,1017.1
2018-09-12T16:21:53.924Z,1017.1
2018-09-12T16:26:54.085Z,1017
2018-09-12T16:31:53.952Z,1017.1
2018-09-12T16:36:53.894Z,1017
2018-09-12T16:42:05.607Z,1017.1
2018-09-12T16:47:05.400Z,1017
2018-09-12T16:52:05.356Z,1017.2
2018-09-12T16:57:05.442Z,1017.2
2018-09-12T17:02:05.377Z,1017.3
2018-09-12T17:07:05.390Z,1017.2
2018-09-12T17:12:05.507Z,1017.2
2018-09-12T17:17:05.408Z,1017.2
2018-09-12T17:22:05.367Z,1017.3
2018-09-12T17:27:16.944Z,1017.3
2018-09-12T17:32:16.933Z,1017.3
2018-09-12T17:37:16.733Z,1017.3
2018-09-12T17:42:16.753Z,1017.4
2018-09-12T17:47:16.696Z,1017.4
2018-09-12T17:52:16.684Z,1017.5
2018-09-12T17:57:16.848Z,1017.5
2018-09-12T18:02:17.616Z,1017.6
2018-09-12T18:07:17.519Z,1017.6
2018-09-12T18:12:31.981Z,1017.8
2018-09-12T18:17:30.530Z,1017.8
2018-09-12T18:22:30.544Z,1017.9
2018-09-12T18:27:30.507Z,1017.9
2018-09-12T18:32:30.487Z,1017.9
2018-09-12T18:37:30.521Z,1018.1
2018-09-12T18:42:30.519Z,1018.1
2018-09-12T18:47:30.493Z,1018.2
2018-09-12T18:52:30.569Z,1018.1
2018-09-12T18:57:30.820Z,1018.2
2018-09-12T19:02:30.728Z,1018.2
2018-09-12T19:07:30.731Z,1018.4
2018-09-12T19:12:31.593Z,1018.4
2018-09-12T19:17:31.448Z,1018.4
2018-09-12T19:22:44.379Z,1018.4
2018-09-12T19:27:44.108Z,1018.4
2018-09-12T19:32:44.057Z,1018.5
2018-09-12T19:37:44.279Z,1018.5
2018-09-12T19:42:44.104Z,1018.6
2018-09-12T19:47:44.395Z,1018.6
2018-09-12T19:52:43.974Z,1018.6
2018-09-12T19:57:44.159Z,1018.5
2018-09-12T20:02:44.236Z,1018.5
2018-09-12T20:07:44.081Z,1018.4
2018-09-12T20:12:44.189Z,1018.4
2018-09-12T20:17:44.282Z,1018.6
2018-09-12T20:22:45.203Z,1018.8
2018-09-12T20:27:44.763Z,1018.8
2018-09-12T20:32:56.899Z,1018.8
2018-09-12T20:37:56.656Z,1018.8
2018-09-12T20:42:56.812Z,1018.8
2018-09-12T20:47:56.949Z,1018.8
2018-09-12T20:52:56.682Z,1018.8
2018-09-12T20:57:56.666Z,1018.7
2018-09-12T21:02:56.948Z,1018.7
2018-09-12T21:07:57.045Z,1018.7
2018-09-12T21:12:56.923Z,1018.7
2018-09-12T21:18:09.567Z,1018.7
2018-09-12T21:23:08.969Z,1018.7
2018-09-12T21:28:08.995Z,1018.7
2018-09-12T21:33:09.063Z,1018.8
2018-09-12T21:38:09.076Z,1018.8
2018-09-12T21:43:08.927Z,1018.7
2018-09-12T21:48:08.961Z,1018.7
2018-09-12T21:53:09.132Z,1018.7
2018-09-12T21:58:08.967Z,1018.7
2018-09-12T22:03:08.973Z,1018.6
2018-09-12T22:08:09.672Z,1018.6
2018-09-12T22:13:08.956Z,1018.6
2018-09-12T22:18:08.977Z,1018.6
2018-09-12T22:23:09.085Z,1018.6
2018-09-12T22:28:21.221Z,1018.7
2018-09-12T22:33:21.072Z,1018.6
2018-09-12T22:38:21.106Z,1018.6
2018-09-12T22:43:20.962Z,1018.7
2018-09-12T22:48:21.202Z,1018.6
2018-09-12T22:53:20.986Z,1018.7
2018-09-12T22:58:21.136Z,1018.7
2018-09-12T23:03:22.932Z,1018.8
2018-09-12T23:08:22.844Z,1018.8
2018-09-12T23:13:32.838Z,1018.9
2018-09-12T23:18:32.578Z,1018.8
2018-09-12T23:23:32.784Z,1018.8
2018-09-12T23:28:32.709Z,1018.7
2018-09-12T23:33:32.590Z,1018.7
2018-09-12T23:38:32.618Z,1018.7
2018-09-12T23:43:32.678Z,1018.7
2018-09-12T23:48:32.754Z,1018.6
2018-09-12T23:53:32.791Z,1018.6
2018-09-12T23:58:32.565Z,1018.6
